Time;durP1;ratioP1;P1;durP2;ratioP2;P2;SDS_P1;SDS_P2;PMS_P1;PMS_P2;Temp;Humidity;BMP_temperature;BMP_pressure;BME280_temperature;BME280_humidity;BME280_pressure;Samples;Min_cycle;Max_cycle;Signal;HPM_P1;HPM_P2
2021/06/24 00:01:06;;;;;;;5.37;4.87;;;18.30;96.10;;;;;;5073810;28;20802;-53
2021/06/24 00:03:34;;;;;;;6.07;5.07;;;18.00;96.20;;;;;;5073250;28;20423;-54
2021/06/24 00:06:03;;;;;;;7.97;5.50;;;18.00;96.40;;;;;;5073677;28;20533;-54
2021/06/24 00:08:30;;;;;;;12.57;4.83;;;18.00;96.40;;;;;;5073291;28;20947;-54
2021/06/24 00:10:58;;;;;;;6.03;4.77;;;18.00;96.60;;;;;;5073917;28;20492;-54
2021/06/24 00:13:27;;;;;;;5.70;5.03;;;18.00;96.60;;;;;;5073408;28;20427;-53
2021/06/24 00:15:54;;;;;;;10.40;5.17;;;17.90;96.80;;;;;;5073454;28;20994;-54
2021/06/24 00:18:21;;;;;;;5.87;5.27;;;17.90;96.90;;;;;;5073324;28;20544;-54
2021/06/24 00:20:49;;;;;;;10.83;5.27;;;17.80;97.10;;;;;;5073329;28;20459;-53
2021/06/24 00:23:16;;;;;;;8.40;6.20;;;17.80;97.20;;;;;;5073340;28;20419;-54
2021/06/24 00:25:43;;;;;;;7.13;5.37;;;17.90;97.40;;;;;;5073573;28;20438;-54
2021/06/24 00:28:14;;;;;;;10.30;5.50;;;17.80;97.60;;;;;;5072804;28;20438;-53
2021/06/24 00:30:43;;;;;;;12.13;5.50;;;17.60;97.60;;;;;;5072877;28;20483;-54
2021/06/24 00:33:10;;;;;;;6.40;5.00;;;17.80;97.90;;;;;;5072722;28;20434;-53
2021/06/24 00:35:37;;;;;;;9.47;5.77;;;17.70;97.90;;;;;;5072967;28;20802;-52
2021/06/24 00:38:04;;;;;;;10.07;5.77;;;17.70;98.20;;;;;;5073159;28;20430;-53
2021/06/24 00:40:33;;;;;;;6.70;5.30;;;17.70;98.30;;;;;;5072647;28;20459;-53
2021/06/24 00:43:01;;;;;;;9.37;5.93;;;17.70;98.40;;;;;;5054602;28;20901;-53
2021/06/24 00:45:27;;;;;;;6.03;5.13;;;17.70;98.50;;;;;;5072928;28;20941;-53
2021/06/24 00:47:55;;;;;;;7.70;4.93;;;17.60;98.60;;;;;;5072817;28;20427;-53
2021/06/24 00:50:23;;;;;;;6.90;5.60;;;17.60;98.60;;;;;;5054303;28;20456;-54
2021/06/24 00:52:50;;;;;;;8.40;5.90;;;17.60;98.80;;;;;;5054534;28;20446;-54
2021/06/24 00:55:17;;;;;;;5.90;5.27;;;17.60;99.00;;;;;;5054443;28;20451;-53
2021/06/24 00:57:45;;;;;;;8.80;6.40;;;17.50;99.10;;;;;;5054446;28;20926;-53
2021/06/24 01:00:13;;;;;;;6.27;5.20;;;17.50;99.10;;;;;;5072205;28;20476;-51
2021/06/24 01:02:40;;;;;;;7.50;5.90;;;17.60;99.30;;;;;;5072002;28;20518;-52
2021/06/24 01:05:09;;;;;;;8.97;5.70;;;17.40;99.40;;;;;;5072605;28;20485;-51
2021/06/24 01:07:36;;;;;;;5.60;5.07;;;17.50;99.50;;;;;;5055025;28;20525;-51
2021/06/24 01:10:22;;;;;;;8.17;5.93;;;17.30;99.40;;;;;;5054086;28;20489;-52
2021/06/24 01:12:49;;;;;;;8.30;5.50;;;17.40;99.50;;;;;;5072649;28;20417;-51
2021/06/24 01:15:16;;;;;;;5.73;5.10;;;17.60;99.70;;;;;;5054588;28;20451;-51
2021/06/24 01:17:44;;;;;;;8.33;5.50;;;17.60;99.70;;;;;;5054506;28;20455;-52
2021/06/24 01:20:14;;;;;;;7.00;6.30;;;17.60;99.80;;;;;;5054021;28;20462;-52
2021/06/24 01:22:41;;;;;;;8.00;5.37;;;17.60;99.80;;;;;;5072529;28;20500;-52
2021/06/24 01:25:10;;;;;;;6.40;5.50;;;17.60;99.90;;;;;;5054383;28;20446;-52
2021/06/24 01:27:37;;;;;;;5.70;5.10;;;17.60;99.90;;;;;;5072876;28;20442;-51
2021/06/24 01:30:05;;;;;;;9.20;5.90;;;17.60;99.90;;;;;;5071789;28;20854;-51
2021/06/24 01:32:33;;;;;;;6.37;4.97;;;17.60;99.90;;;;;;5054140;28;20553;-52
2021/06/24 01:35:00;;;;;;;5.83;5.17;;;17.60;99.90;;;;;;5053867;28;20838;-52
2021/06/24 01:37:27;;;;;;;8.07;4.60;;;17.70;99.90;;;;;;5054032;28;20455;-51
2021/06/24 01:39:54;;;;;;;5.83;5.23;;;17.60;99.90;;;;;;5053955;28;20983;-52
2021/06/24 01:42:22;;;;;;;9.73;5.80;;;17.70;99.90;;;;;;5054101;28;20533;-52
2021/06/24 01:44:49;;;;;;;9.23;5.97;;;17.70;99.90;;;;;;5072101;28;20435;-52
2021/06/24 01:47:17;;;;;;;9.43;4.93;;;17.90;99.90;;;;;;5053921;28;20885;-52
2021/06/24 01:49:43;;;;;;;8.43;5.20;;;17.70;99.90;;;;;;5053383;28;20492;-52
2021/06/24 01:52:10;;;;;;;10.70;6.10;;;17.70;99.90;;;;;;5053749;28;20575;-52
2021/06/24 01:54:37;;;;;;;6.57;5.13;;;17.70;99.90;;;;;;5053930;28;20502;-52
2021/06/24 01:57:04;;;;;;;6.90;5.50;;;17.70;99.90;;;;;;5071749;28;20497;-52
2021/06/24 01:59:34;;;;;;;7.47;4.90;;;17.90;99.90;;;;;;5053349;28;20478;-52
2021/06/24 02:02:04;;;;;;;9.67;5.33;;;17.80;99.90;;;;;;5071544;28;20423;-52
2021/06/24 02:04:46;;;;;;;8.63;6.17;;;17.90;99.90;;;;;;5053723;28;20447;-52
2021/06/24 02:07:14;;;;;;;9.70;6.23;;;17.70;99.90;;;;;;5053715;28;20478;-52
2021/06/24 02:10:09;;;;;;;8.93;6.60;;;17.70;99.90;;;;;;5047564;28;20452;-52
2021/06/24 02:12:43;;;;;;;8.27;7.10;;;17.70;99.90;;;;;;5053550;28;20552;-52
2021/06/24 02:15:14;;;;;;;8.87;6.87;;;17.70;99.90;;;;;;5052728;28;20459;-52
2021/06/24 02:17:41;;;;;;;8.20;6.00;;;17.70;99.90;;;;;;5053758;28;20451;-52
2021/06/24 02:20:12;;;;;;;12.37;6.73;;;17.40;99.90;;;;;;5071026;28;20455;-52
2021/06/24 02:22:48;;;;;;;7.30;6.23;;;17.60;99.90;;;;;;5053237;28;20454;-51
2021/06/24 02:25:18;;;;;;;11.50;6.47;;;17.90;99.90;;;;;;5053479;28;20465;-51
2021/06/24 02:28:03;;;;;;;11.90;6.40;;;17.60;99.90;;;;;;5053111;28;20460;-52
2021/06/24 02:30:44;;;;;;;9.70;5.90;;;17.70;99.90;;;;;;5053144;28;20489;-51
2021/06/24 02:33:15;;;;;;;10.93;6.27;;;18.00;99.90;;;;;;5053141;28;20516;-52
2021/06/24 02:35:55;;;;;;;10.97;6.07;;;17.80;99.90;;;;;;5053303;28;20496;-52
2021/06/24 02:38:24;;;;;;;7.33;5.43;;;17.60;99.90;;;;;;5052187;28;20466;-52
2021/06/24 02:40:56;;;;;;;6.83;6.13;;;17.50;99.90;;;;;;5052189;28;20458;-52
2021/06/24 02:43:27;;;;;;;8.73;5.53;;;17.50;99.90;;;;;;5053181;28;20881;-53
2021/06/24 02:45:55;;;;;;;6.20;5.60;;;17.50;99.90;;;;;;5071593;28;20938;-52
2021/06/24 02:48:30;;;;;;;6.90;5.10;;;17.40;99.90;;;;;;5052943;28;20450;-52
2021/06/24 02:51:01;;;;;;;6.63;5.67;;;17.40;99.90;;;;;;5053089;28;20584;-52
2021/06/24 02:53:29;;;;;;;10.57;6.53;;;17.20;99.90;;;;;;5053093;28;20472;-53
2021/06/24 02:56:00;;;;;;;10.67;6.23;;;17.40;99.90;;;;;;5053192;28;20540;-52
2021/06/24 02:58:34;;;;;;;8.13;5.20;;;17.30;99.90;;;;;;5052648;28;20476;-53
2021/06/24 03:01:09;;;;;;;7.73;5.43;;;17.60;99.90;;;;;;5052851;28;20982;-52
2021/06/24 03:03:51;;;;;;;10.90;6.33;;;17.70;99.90;;;;;;5053058;28;20486;-52
2021/06/24 03:06:22;;;;;;;7.43;5.67;;;17.40;99.90;;;;;;5071055;28;20442;-53
2021/06/24 03:08:49;;;;;;;7.50;5.97;;;17.40;99.90;;;;;;5070657;28;20999;-53
2021/06/24 03:11:22;;;;;;;9.53;6.37;;;17.50;99.90;;;;;;5071027;28;20502;-53
2021/06/24 03:13:52;;;;;;;10.37;6.17;;;17.40;99.90;;;;;;5071105;28;20434;-52
2021/06/24 03:16:27;;;;;;;7.30;5.87;;;17.50;99.90;;;;;;5052402;28;20455;-53
2021/06/24 03:18:54;;;;;;;6.53;5.10;;;17.20;99.90;;;;;;5052560;28;20768;-52
2021/06/24 03:21:23;;;;;;;9.90;5.97;;;17.40;99.90;;;;;;5070581;28;20449;-53
2021/06/24 03:23:50;;;;;;;7.20;5.93;;;17.20;99.90;;;;;;5052784;28;20894;-52
2021/06/24 03:26:18;;;;;;;8.93;5.83;;;17.40;99.90;;;;;;5053725;28;20454;-52
2021/06/24 03:28:48;;;;;;;6.57;5.97;;;17.50;99.90;;;;;;5056275;28;20536;-52
2021/06/24 03:31:18;;;;;;;10.30;7.07;;;17.30;99.90;;;;;;5056484;28;20466;-52
2021/06/24 03:33:46;;;;;;;11.20;6.60;;;17.20;99.90;;;;;;5056076;28;20874;-52
2021/06/24 03:36:14;;;;;;;11.40;5.70;;;17.10;99.90;;;;;;5056574;28;20507;-52
2021/06/24 03:38:45;;;;;;;7.20;6.20;;;17.30;99.90;;;;;;5074084;28;20519;-53
2021/06/24 03:41:15;;;;;;;10.83;6.40;;;17.30;99.90;;;;;;5056244;28;20988;-52
2021/06/24 03:43:44;;;;;;;8.80;6.47;;;17.20;99.90;;;;;;5056392;28;20527;-52
2021/06/24 03:46:11;;;;;;;7.90;6.80;;;17.20;99.90;;;;;;5056138;28;20451;-52
2021/06/24 03:48:38;;;;;;;7.50;5.77;;;17.30;99.90;;;;;;5055816;28;20473;-52
2021/06/24 03:51:14;;;;;;;8.90;5.70;;;17.30;99.90;;;;;;5056143;28;20476;-52
2021/06/24 03:53:41;;;;;;;9.80;6.03;;;17.20;99.90;;;;;;5073873;28;20405;-52
2021/06/24 03:56:09;;;;;;;9.27;6.23;;;17.20;99.90;;;;;;5074326;28;20950;-51
2021/06/24 03:58:42;;;;;;;12.13;6.10;;;17.40;99.90;;;;;;5055738;28;20443;-52
2021/06/24 04:01:10;;;;;;;8.97;6.03;;;17.10;99.90;;;;;;5074006;28;20607;-52
2021/06/24 04:03:37;;;;;;;13.23;6.20;;;17.60;99.90;;;;;;5055719;28;20442;-52
2021/06/24 04:06:08;;;;;;;9.53;6.40;;;17.50;99.90;;;;;;5056153;28;20478;-52
2021/06/24 04:08:36;;;;;;;7.93;5.50;;;17.50;99.90;;;;;;5056275;28;20450;-52
2021/06/24 04:11:12;;;;;;;9.40;6.40;;;17.50;99.90;;;;;;5055768;28;20499;-53
2021/06/24 04:13:43;;;;;;;8.13;6.80;;;17.50;99.90;;;;;;5055662;28;20885;-53
2021/06/24 04:16:31;;;;;;;9.40;7.67;;;17.50;99.90;;;;;;5073091;28;20470;-52
2021/06/24 04:18:58;;;;;;;8.20;5.90;;;17.50;99.90;;;;;;5073207;28;20442;-52
2021/06/24 04:21:25;;;;;;;8.80;7.17;;;17.50;99.90;;;;;;5073202;28;20422;-52
2021/06/24 04:23:55;;;;;;;11.60;7.20;;;17.90;99.90;;;;;;5055196;28;20549;-52
2021/06/24 04:26:22;;;;;;;10.93;6.93;;;17.40;99.90;;;;;;5073123;28;20941;-52
2021/06/24 04:28:49;;;;;;;9.70;6.80;;;17.20;99.90;;;;;;5055148;28;20876;-52
2021/06/24 04:31:16;;;;;;;11.27;7.13;;;17.60;99.90;;;;;;5055629;28;20504;-52
2021/06/24 04:33:43;;;;;;;10.40;6.90;;;17.60;99.90;;;;;;5073093;28;20456;-52
2021/06/24 04:36:28;;;;;;;13.13;6.70;;;17.50;99.90;;;;;;5072888;28;20417;-52
2021/06/24 04:39:06;;;;;;;9.33;6.90;;;17.90;99.90;;;;;;5053915;28;20448;-52
2021/06/24 04:41:34;;;;;;;7.70;6.90;;;17.70;99.90;;;;;;5073257;28;20540;-52
2021/06/24 04:44:04;;;;;;;9.43;6.70;;;17.50;99.90;;;;;;5054943;28;20462;-52
2021/06/24 04:46:33;;;;;;;12.67;6.60;;;17.70;99.90;;;;;;5054579;28;20866;-52
2021/06/24 04:49:03;;;;;;;10.43;6.90;;;18.00;99.90;;;;;;5054523;28;20490;-52
2021/06/24 04:51:48;;;;;;;14.63;7.37;;;17.40;99.90;;;;;;5073218;28;20471;-52
2021/06/24 04:54:37;;;;;;;11.00;8.00;;;17.80;99.90;;;;;;5072333;28;20847;-51
2021/06/24 04:57:06;;;;;;;12.40;7.07;;;17.80;99.90;;;;;;5054793;28;20465;-51
2021/06/24 04:59:55;;;;;;;9.47;7.37;;;17.80;99.90;;;;;;5072323;28;20552;-52
2021/06/24 05:02:41;;;;;;;15.60;7.93;;;17.70;99.90;;;;;;5073572;28;20423;-51
2021/06/24 05:05:27;;;;;;;12.97;7.87;;;17.70;99.90;;;;;;5072896;28;20426;-52
2021/06/24 05:07:54;;;;;;;14.87;7.80;;;17.60;99.90;;;;;;5072886;28;20445;-52
2021/06/24 05:10:22;;;;;;;9.70;7.43;;;17.70;99.90;;;;;;5072298;28;20450;-53
2021/06/24 05:12:48;;;;;;;11.10;7.20;;;17.70;99.90;;;;;;5072387;28;20568;-53
2021/06/24 05:15:16;;;;;;;9.67;7.07;;;17.70;99.90;;;;;;5072452;28;20523;-53
2021/06/24 05:17:43;;;;;;;9.90;7.10;;;17.60;99.90;;;;;;5054220;28;20457;-52
2021/06/24 05:20:11;;;;;;;14.23;7.30;;;17.70;99.90;;;;;;5071972;28;20465;-52
2021/06/24 05:22:38;;;;;;;16.60;8.17;;;17.70;99.90;;;;;;5072423;28;20468;-52
2021/06/24 05:25:05;;;;;;;14.73;8.33;;;17.60;99.90;;;;;;5072158;28;20524;-52
2021/06/24 05:28:28;;;;;;;12.27;8.00;;;17.50;99.90;;;;;;5071947;28;20442;-52
2021/06/24 05:30:56;;;;;;;10.50;7.03;;;17.70;99.90;;;;;;5071221;28;20987;-52
2021/06/24 05:33:22;;;;;;;12.20;8.97;;;17.90;99.90;;;;;;5053617;28;20482;-52
2021/06/24 05:35:49;;;;;;;12.50;9.07;;;17.60;99.90;;;;;;5071855;28;20422;-52
2021/06/24 05:38:17;;;;;;;14.47;8.87;;;17.70;99.90;;;;;;5071427;28;20427;-52
2021/06/24 05:40:45;;;;;;;12.00;9.23;;;17.60;99.90;;;;;;5071512;28;20465;-52
2021/06/24 05:43:12;;;;;;;13.87;8.40;;;17.60;99.90;;;;;;5053451;28;21004;-52
2021/06/24 05:45:39;;;;;;;13.77;9.60;;;17.90;99.90;;;;;;5071486;28;20528;-53
2021/06/24 05:48:07;;;;;;;14.27;9.07;;;17.70;99.90;;;;;;5071268;28;20442;-52
2021/06/24 05:50:35;;;;;;;13.80;9.80;;;17.70;99.90;;;;;;5053278;28;20477;-52
2021/06/24 05:53:01;;;;;;;13.33;9.60;;;17.70;99.90;;;;;;5071471;28;20975;-53
2021/06/24 05:58:09;;;;;;;16.70;9.70;;;17.80;99.90;;;;;;5052278;28;20438;-53
2021/06/24 06:00:35;;;;;;;12.33;9.43;;;17.70;99.90;;;;;;5071311;28;20553;-53
2021/06/24 06:03:02;;;;;;;12.37;9.37;;;17.80;99.90;;;;;;5071850;28;20431;-53
2021/06/24 06:05:32;;;;;;;15.50;11.83;;;17.80;99.90;;;;;;5071655;28;20741;-52
2021/06/24 06:07:59;;;;;;;15.33;11.70;;;17.80;99.90;;;;;;5071357;28;20437;-53
2021/06/24 06:10:26;;;;;;;15.10;10.90;;;17.80;99.90;;;;;;5071082;28;20449;-53
2021/06/24 06:12:53;;;;;;;16.67;10.63;;;17.80;99.90;;;;;;5071351;28;20475;-52
2021/06/24 06:15:20;;;;;;;13.30;9.90;;;17.90;99.90;;;;;;5070846;28;20427;-53
2021/06/24 06:17:46;;;;;;;13.53;10.40;;;17.90;99.90;;;;;;5071015;28;20434;-53
2021/06/24 06:20:14;;;;;;;14.83;12.00;;;18.00;99.90;;;;;;5070576;28;20557;-52
2021/06/24 06:22:42;;;;;;;12.30;10.57;;;18.00;99.90;;;;;;5070926;28;20894;-53
2021/06/24 06:25:09;;;;;;;15.87;10.80;;;18.10;99.90;;;;;;5071232;28;20421;-53
2021/06/24 06:27:36;;;;;;;13.93;12.10;;;18.10;99.90;;;;;;5071426;28;20451;-53
2021/06/24 06:30:03;;;;;;;13.60;10.30;;;18.30;99.90;;;;;;5070374;28;20461;-52
2021/06/24 06:32:30;;;;;;;17.80;11.73;;;18.20;99.90;;;;;;5070749;28;20834;-52
2021/06/24 06:34:56;;;;;;;19.60;12.13;;;18.50;99.90;;;;;;5070963;28;20529;-52
2021/06/24 06:37:23;;;;;;;19.70;11.97;;;18.40;99.90;;;;;;5071194;28;20510;-52
2021/06/24 06:39:51;;;;;;;18.03;13.17;;;18.70;99.90;;;;;;5070559;28;20454;-53
2021/06/24 06:42:18;;;;;;;15.23;11.80;;;18.30;99.90;;;;;;5052066;28;20461;-53
2021/06/24 06:44:44;;;;;;;12.23;10.23;;;18.50;99.90;;;;;;5070518;28;20953;-53
2021/06/24 06:47:11;;;;;;;18.60;11.70;;;18.40;99.90;;;;;;5052232;28;20455;-52
2021/06/24 06:49:38;;;;;;;15.67;11.87;;;18.60;99.90;;;;;;5069730;28;20451;-52
2021/06/24 06:52:05;;;;;;;14.93;10.60;;;18.70;99.90;;;;;;5070242;28;20480;-52
2021/06/24 06:54:32;;;;;;;16.40;11.00;;;18.80;99.90;;;;;;5070207;28;20937;-52
2021/06/24 06:56:59;;;;;;;17.00;11.37;;;18.90;99.90;;;;;;5069924;28;20441;-52
2021/06/24 06:59:26;;;;;;;14.93;11.37;;;19.10;99.90;;;;;;5093661;22;20778;-55
2021/06/24 07:01:53;;;;;;;13.90;11.70;;;19.10;99.90;;;;;;5035150;28;20473;-55
2021/06/24 07:04:21;;;;;;;15.00;11.53;;;19.30;99.90;;;;;;5019576;28;20454;-54
2021/06/24 07:06:47;;;;;;;17.27;12.60;;;19.30;99.90;;;;;;5037734;28;20439;-53
2021/06/24 07:09:14;;;;;;;14.93;11.07;;;19.30;99.90;;;;;;5037157;28;20528;-53
2021/06/24 07:11:41;;;;;;;14.60;10.53;;;19.50;99.90;;;;;;5017024;28;20522;-53
2021/06/24 07:14:09;;;;;;;17.37;13.17;;;19.50;99.90;;;;;;5017644;28;20502;-53
2021/06/24 07:16:36;;;;;;;15.60;12.27;;;19.60;99.90;;;;;;5017685;28;20527;-54
2021/06/24 07:19:03;;;;;;;16.83;13.27;;;19.60;99.90;;;;;;5018280;28;20535;-53
2021/06/24 07:21:30;;;;;;;18.67;13.97;;;19.50;99.90;;;;;;5018165;28;20468;-53
2021/06/24 07:23:57;;;;;;;21.00;15.20;;;19.50;99.90;;;;;;5017829;28;20787;-53
2021/06/24 07:26:23;;;;;;;16.83;14.77;;;19.40;99.90;;;;;;5018210;28;20539;-53
2021/06/24 07:28:50;;;;;;;15.07;13.40;;;19.90;99.90;;;;;;5016977;28;20447;-53
2021/06/24 07:31:18;;;;;;;17.03;12.60;;;20.00;99.90;;;;;;5017676;28;20459;-55
2021/06/24 07:33:47;;;;;;;15.10;12.50;;;20.00;99.90;;;;;;5018838;28;20491;-53
2021/06/24 07:36:15;;;;;;;19.50;12.90;;;20.10;99.90;;;;;;5017554;28;20445;-54
2021/06/24 07:38:41;;;;;;;16.60;11.57;;;20.10;99.90;;;;;;5016748;28;20523;-56
2021/06/24 07:41:08;;;;;;;21.63;12.03;;;19.90;99.90;;;;;;4999473;28;20825;-53
2021/06/24 07:43:35;;;;;;;15.63;10.90;;;19.80;99.90;;;;;;5016930;28;20439;-55
2021/06/24 07:46:02;;;;;;;18.50;11.70;;;19.80;99.90;;;;;;4999161;28;20570;-53
2021/06/24 07:48:30;;;;;;;14.40;12.27;;;19.80;99.90;;;;;;5016814;28;20436;-54
2021/06/24 07:50:57;;;;;;;16.53;12.90;;;19.80;99.90;;;;;;5016960;28;20538;-54
2021/06/24 07:53:23;;;;;;;16.10;13.33;;;19.70;99.90;;;;;;5015785;28;20571;-56
2021/06/24 07:55:50;;;;;;;17.83;12.80;;;20.00;99.90;;;;;;5016906;28;20446;-55
2021/06/24 07:58:17;;;;;;;19.10;12.80;;;20.10;99.90;;;;;;5016497;28;20831;-55
2021/06/24 08:00:43;;;;;;;15.33;11.73;;;19.60;99.90;;;;;;5016694;28;20553;-54
2021/06/24 08:03:10;;;;;;;17.87;13.03;;;19.40;99.90;;;;;;5016630;28;20445;-55
2021/06/24 08:05:38;;;;;;;16.13;12.30;;;19.50;99.90;;;;;;5016872;28;20495;-55
2021/06/24 08:08:05;;;;;;;16.40;13.63;;;20.10;99.90;;;;;;5016717;28;20959;-55
2021/06/24 08:10:32;;;;;;;15.20;13.67;;;20.20;99.90;;;;;;5016949;28;20967;-54
2021/06/24 08:12:59;;;;;;;14.10;12.50;;;20.30;99.90;;;;;;5015034;28;20473;-54
2021/06/24 08:15:26;;;;;;;13.23;11.90;;;20.50;99.90;;;;;;5013908;28;20863;-55
2021/06/24 08:17:55;;;;;;;16.03;12.50;;;20.50;99.90;;;;;;5013772;28;20456;-55
2021/06/24 08:20:22;;;;;;;15.27;12.50;;;20.60;99.90;;;;;;5013314;28;20453;-55
2021/06/24 08:22:50;;;;;;;15.63;12.83;;;20.60;99.90;;;;;;5013607;28;20524;-54
2021/06/24 08:25:17;;;;;;;19.20;11.80;;;20.70;99.90;;;;;;5013539;28;20440;-54
2021/06/24 08:27:49;;;;;;;15.80;12.00;;;21.00;99.90;;;;;;5013110;28;20720;-55
2021/06/24 08:30:17;;;;;;;14.90;11.90;;;20.80;99.90;;;;;;5013042;28;20909;-54
2021/06/24 08:32:43;;;;;;;13.87;12.47;;;20.80;99.90;;;;;;4995820;28;20509;-55
2021/06/24 08:35:11;;;;;;;14.07;11.93;;;20.90;99.90;;;;;;5013417;28;20929;-55
2021/06/24 08:37:39;;;;;;;13.63;12.10;;;21.00;99.90;;;;;;5012961;28;20529;-55
2021/06/24 08:40:09;;;;;;;14.80;10.53;;;21.10;99.90;;;;;;5012488;28;20484;-55
2021/06/24 08:42:38;;;;;;;16.33;11.90;;;20.90;99.90;;;;;;5013026;28;20479;-55
2021/06/24 08:45:08;;;;;;;19.30;12.70;;;21.10;99.90;;;;;;5013162;28;20496;-55
2021/06/24 08:47:36;;;;;;;22.57;11.60;;;21.20;99.90;;;;;;4995738;28;21002;-54
2021/06/24 08:50:04;;;;;;;16.30;13.17;;;21.30;99.90;;;;;;5012906;28;20472;-54
2021/06/24 08:52:30;;;;;;;13.70;12.30;;;21.40;99.90;;;;;;5013224;28;20484;-54
2021/06/24 08:54:57;;;;;;;15.67;12.03;;;21.40;99.90;;;;;;4995235;28;20552;-55
2021/06/24 08:57:26;;;;;;;20.00;12.77;;;21.40;99.90;;;;;;5012742;28;21022;-55
2021/06/24 08:59:53;;;;;;;20.37;12.87;;;21.40;99.90;;;;;;5012262;28;20469;-55
2021/06/24 09:02:37;;;;;;;14.23;11.23;;;21.40;99.90;;;;;;4995658;28;20552;-55
2021/06/24 09:05:05;;;;;;;14.40;11.57;;;21.50;99.90;;;;;;5011466;28;20446;-55
2021/06/24 09:07:32;;;;;;;14.83;12.70;;;21.30;99.90;;;;;;5013315;28;20538;-54
2021/06/24 09:10:00;;;;;;;16.63;12.50;;;20.90;99.90;;;;;;5012224;28;20466;-53
2021/06/24 09:12:28;;;;;;;16.93;11.80;;;21.20;99.90;;;;;;5012861;28;20438;-55
2021/06/24 09:15:00;;;;;;;17.33;12.50;;;21.20;99.90;;;;;;5012716;28;20806;-55
2021/06/24 09:17:35;;;;;;;14.50;12.37;;;21.20;99.90;;;;;;5012811;28;20619;-54
2021/06/24 09:20:04;;;;;;;15.33;12.00;;;21.20;99.90;;;;;;5011999;28;20609;-54
2021/06/24 09:22:31;;;;;;;17.80;11.53;;;21.20;99.90;;;;;;5012423;28;20499;-54
2021/06/24 09:24:57;;;;;;;13.97;11.33;;;20.90;99.90;;;;;;5012151;28;20560;-54
2021/06/24 09:27:28;;;;;;;17.10;11.40;;;21.20;99.90;;;;;;5012734;28;20823;-54
2021/06/24 09:30:05;;;;;;;12.53;11.10;;;21.20;99.90;;;;;;5011597;28;20820;-55
2021/06/24 09:32:33;;;;;;;18.53;11.20;;;21.20;99.90;;;;;;5012199;28;20436;-55
2021/06/24 09:35:02;;;;;;;19.93;12.83;;;21.10;99.90;;;;;;4994601;28;20453;-55
2021/06/24 09:37:30;;;;;;;13.93;10.23;;;20.90;99.90;;;;;;5012645;28;20446;-55
2021/06/24 09:39:56;;;;;;;14.83;11.53;;;21.20;99.90;;;;;;5011931;28;20898;-55
2021/06/24 09:42:24;;;;;;;14.63;10.33;;;21.00;99.90;;;;;;5011999;28;20489;-55
2021/06/24 09:44:52;;;;;;;17.73;11.70;;;21.20;99.90;;;;;;5012575;28;20478;-55
2021/06/24 09:47:25;;;;;;;15.50;11.77;;;21.50;99.90;;;;;;5012279;28;20442;-55
2021/06/24 09:49:59;;;;;;;15.23;10.67;;;21.10;99.90;;;;;;5011727;28;20442;-55
2021/06/24 09:52:27;;;;;;;16.90;10.33;;;21.50;99.90;;;;;;5011788;28;20433;-55
2021/06/24 09:55:04;;;;;;;12.20;9.30;;;21.60;99.90;;;;;;5011780;28;20446;-55
2021/06/24 09:57:31;;;;;;;11.70;10.50;;;21.60;99.90;;;;;;5012074;28;20533;-55
2021/06/24 10:00:19;;;;;;;13.23;11.10;;;21.70;99.90;;;;;;5011335;28;20969;-55
2021/06/24 10:03:02;;;;;;;13.80;10.40;;;21.70;99.90;;;;;;5011614;28;20442;-55
2021/06/24 10:05:30;;;;;;;13.03;10.10;;;21.80;99.90;;;;;;5011437;28;20438;-55
2021/06/24 10:07:57;;;;;;;13.57;10.50;;;21.80;99.90;;;;;;5011716;28;20438;-55
2021/06/24 10:10:24;;;;;;;17.43;11.10;;;21.90;99.90;;;;;;5011173;28;20545;-55
2021/06/24 10:12:51;;;;;;;15.37;10.37;;;22.00;99.90;;;;;;5011390;28;20481;-58
2021/06/24 10:15:19;;;;;;;10.77;8.83;;;22.10;99.90;;;;;;5011482;28;20439;-55
2021/06/24 10:17:46;;;;;;;14.10;10.23;;;22.20;99.90;;;;;;5011214;28;20435;-55
2021/06/24 10:20:13;;;;;;;11.77;10.00;;;22.10;99.90;;;;;;5010400;28;20657;-57
2021/06/24 10:22:42;;;;;;;14.50;10.47;;;22.10;99.90;;;;;;5010643;28;20446;-55
2021/06/24 10:25:12;;;;;;;11.20;10.10;;;21.90;99.90;;;;;;5011302;28;20955;-55
2021/06/24 10:27:41;;;;;;;12.70;7.63;;;22.20;99.90;;;;;;5011548;28;20439;-55
2021/06/24 10:30:10;;;;;;;10.07;7.60;;;22.10;99.90;;;;;;5010478;28;20455;-54
2021/06/24 10:32:40;;;;;;;13.97;9.40;;;22.20;99.90;;;;;;4993047;28;20451;-54
2021/06/24 10:35:08;;;;;;;12.90;8.10;;;22.20;99.90;;;;;;5010775;28;20859;-54
2021/06/24 10:37:36;;;;;;;10.97;8.80;;;22.30;99.90;;;;;;5011227;28;20868;-54
2021/06/24 10:40:23;;;;;;;13.67;8.70;;;22.30;99.90;;;;;;5012144;28;20506;-54
2021/06/24 10:42:52;;;;;;;18.93;9.80;;;22.30;99.90;;;;;;5010822;28;20526;-54
2021/06/24 10:45:20;;;;;;;11.40;8.93;;;22.30;99.90;;;;;;4993089;28;20452;-55
2021/06/24 10:47:48;;;;;;;10.17;9.03;;;22.10;99.80;;;;;;5010682;28;20551;-54
2021/06/24 10:50:36;;;;;;;12.00;9.63;;;22.10;99.90;;;;;;5010166;28;20459;-55
2021/06/24 10:53:39;;;;;;;9.67;8.70;;;22.00;99.90;;;;;;5010544;28;20475;-56
2021/06/24 10:56:31;;;;;;;10.57;8.37;;;22.00;99.90;;;;;;5010536;28;20455;-56
2021/06/24 10:58:59;;;;;;;11.00;7.90;;;21.90;99.90;;;;;;5010572;28;20444;-55
2021/06/24 11:01:42;;;;;;;10.83;8.90;;;21.90;99.90;;;;;;5010842;28;20940;-56
2021/06/24 11:04:27;;;;;;;11.60;9.57;;;21.80;99.90;;;;;;5010860;28;20524;-56
2021/06/24 11:06:55;;;;;;;13.47;9.70;;;22.30;99.90;;;;;;5011047;28;20435;-55
2021/06/24 11:09:22;;;;;;;13.17;9.23;;;22.00;99.90;;;;;;5010758;28;20436;-56
2021/06/24 11:11:49;;;;;;;12.83;9.20;;;22.20;99.90;;;;;;5010740;28;20956;-56
2021/06/24 11:14:17;;;;;;;13.63;11.80;;;22.20;99.90;;;;;;5011014;28;20463;-56
2021/06/24 11:16:44;;;;;;;12.90;11.60;;;22.30;99.90;;;;;;5011247;28;20522;-54
2021/06/24 11:19:14;;;;;;;16.50;11.47;;;22.40;99.90;;;;;;5010522;28;20440;-55
2021/06/24 11:21:55;;;;;;;13.93;12.60;;;22.50;99.90;;;;;;5011417;28;20462;-55
2021/06/24 11:24:24;;;;;;;15.60;11.00;;;22.60;99.90;;;;;;4993386;28;20481;-55
2021/06/24 11:26:53;;;;;;;12.87;11.50;;;22.60;99.90;;;;;;5010664;28;20441;-55
2021/06/24 11:32:18;;;;;;;13.60;10.80;;;22.60;99.90;;;;;;4995252;28;20452;-55
2021/06/24 11:34:52;;;;;;;12.03;10.93;;;22.40;99.80;;;;;;5010915;28;20470;-54
2021/06/24 11:37:22;;;;;;;12.13;10.40;;;22.40;99.90;;;;;;5011173;28;20863;-54
2021/06/24 11:39:52;;;;;;;10.97;9.97;;;22.40;99.90;;;;;;5010732;28;20578;-55
2021/06/24 11:42:21;;;;;;;8.80;7.90;;;22.60;99.80;;;;;;4992485;28;20459;-54
2021/06/24 11:44:50;;;;;;;12.00;9.03;;;22.60;99.50;;;;;;5010397;28;20774;-54
2021/06/24 11:47:18;;;;;;;9.77;8.70;;;22.70;99.20;;;;;;5011338;28;20427;-55
2021/06/24 12:01:13;;;;;;;9.43;6.90;;;23.30;97.60;;;;;;5013529;28;20461;-54
2021/06/24 12:03:39;;;;;;;9.80;7.70;;;23.50;97.50;;;;;;5013685;28;20879;-55
2021/06/24 12:06:07;;;;;;;7.53;6.83;;;23.70;97.10;;;;;;5013305;28;20481;-54
2021/06/24 12:08:34;;;;;;;7.37;6.53;;;23.70;96.60;;;;;;5013460;28;20192;-54
2021/06/24 12:11:05;;;;;;;9.80;6.60;;;23.70;96.30;;;;;;5013637;28;20467;-55
2021/06/24 12:13:32;;;;;;;6.50;5.20;;;23.60;95.60;;;;;;5013629;28;20988;-54
2021/06/24 12:16:00;;;;;;;7.13;5.47;;;23.60;95.40;;;;;;4995426;28;20465;-54
2021/06/24 12:18:38;;;;;;;8.93;5.77;;;23.70;95.20;;;;;;5013204;28;20443;-55
2021/06/24 12:21:09;;;;;;;7.40;5.10;;;23.80;94.50;;;;;;5013228;28;20491;-54
2021/06/24 12:23:41;;;;;;;7.00;5.23;;;23.80;94.40;;;;;;5013797;28;20545;-54
2021/06/24 12:26:08;;;;;;;8.50;4.60;;;23.90;94.20;;;;;;5013144;28;20506;-55
2021/06/24 12:28:34;;;;;;;6.77;4.70;;;23.90;93.60;;;;;;4995318;28;20546;-55
2021/06/24 12:31:01;;;;;;;6.23;4.53;;;24.00;93.30;;;;;;5013136;28;20455;-54
2021/06/24 12:33:29;;;;;;;7.07;5.80;;;24.00;92.90;;;;;;4995488;28;20586;-55
2021/06/24 12:35:56;;;;;;;7.40;5.60;;;24.00;93.00;;;;;;5013269;28;20439;-55
2021/06/24 12:38:26;;;;;;;6.73;5.47;;;24.00;93.20;;;;;;5012757;28;20436;-55
2021/06/24 12:40:55;;;;;;;6.03;5.03;;;24.10;93.00;;;;;;4995790;28;20485;-55
2021/06/24 12:43:25;;;;;;;5.93;4.80;;;24.20;92.90;;;;;;5013245;28;20523;-55
2021/06/24 12:45:54;;;;;;;8.33;5.53;;;24.30;92.90;;;;;;5012957;28;20810;-55
2021/06/24 12:48:25;;;;;;;10.77;5.30;;;24.40;92.90;;;;;;5012581;28;20916;-55
2021/06/24 12:50:52;;;;;;;7.90;5.07;;;24.40;92.70;;;;;;5012921;28;20459;-55
2021/06/24 12:53:30;;;;;;;8.23;6.17;;;24.30;92.80;;;;;;5013332;28;20534;-55
2021/06/24 12:55:57;;;;;;;7.73;5.53;;;24.20;92.60;;;;;;5013008;28;20519;-55
2021/06/24 12:58:33;;;;;;;8.23;5.00;;;24.00;92.60;;;;;;5011672;28;20472;-55
2021/06/24 13:01:09;;;;;;;6.27;5.67;;;23.90;92.50;;;;;;5012226;28;20578;-55
2021/06/24 13:03:47;;;;;;;7.67;5.73;;;23.80;92.80;;;;;;5012771;28;20529;-55
2021/06/24 13:06:23;;;;;;;9.53;5.17;;;23.80;93.00;;;;;;5012775;28;20540;-55
2021/06/24 13:09:03;;;;;;;6.50;5.90;;;23.90;93.00;;;;;;5012435;28;20517;-55